Time;durP1;ratioP1;P1;durP2;ratioP2;P2;SDS_P1;SDS_P2;PMS_P1;PMS_P2;Temp;Humidity;BMP_temperature;BMP_pressure;BME280_temperature;BME280_humidity;BME280_pressure;Samples;Min_cycle;Max_cycle;Signal;HPM_P1;HPM_P2
2024/04/01 00:00:17;;;;;;;10.07;2.95;;;8.40;99.90;;;;;;5014185;28;20095;-63
2024/04/01 00:03:04;;;;;;;16.00;3.83;;;8.30;99.90;;;;;;5019558;28;20514;-63
2024/04/01 00:05:54;;;;;;;10.07;3.40;;;8.40;99.90;;;;;;5016232;28;20398;-63
2024/04/01 00:08:40;;;;;;;13.77;3.20;;;8.40;99.90;;;;;;5020611;28;20257;-63
2024/04/01 00:11:25;;;;;;;7.65;2.75;;;8.40;99.90;;;;;;5020311;28;20116;-63
2024/04/01 00:14:11;;;;;;;9.73;2.90;;;8.40;99.90;;;;;;5019404;28;20391;-63
2024/04/01 00:16:57;;;;;;;12.30;2.87;;;8.40;99.90;;;;;;5017861;28;20057;-63
2024/04/01 00:19:43;;;;;;;8.90;2.67;;;8.40;99.90;;;;;;5002244;28;20045;-63
2024/04/01 00:22:29;;;;;;;8.07;2.30;;;8.40;99.90;;;;;;5009804;28;20494;-63
2024/04/01 00:25:15;;;;;;;13.80;2.95;;;8.40;99.90;;;;;;5003327;28;20033;-63
2024/04/01 00:28:01;;;;;;;11.80;2.40;;;8.40;99.90;;;;;;5007266;28;20033;-63
2024/04/01 00:30:47;;;;;;;10.05;2.60;;;8.40;99.90;;;;;;4999487;28;20062;-63
2024/04/01 00:33:33;;;;;;;14.05;3.05;;;8.30;99.90;;;;;;5007485;28;20548;-63
2024/04/01 00:36:21;;;;;;;13.25;3.63;;;8.30;99.90;;;;;;5002519;28;20117;-63
2024/04/01 00:39:07;;;;;;;15.98;3.47;;;8.30;99.90;;;;;;5005757;28;20615;-63
2024/04/01 00:41:53;;;;;;;11.20;3.15;;;8.30;99.90;;;;;;5005100;28;20120;-63
2024/04/01 00:44:39;;;;;;;12.68;2.53;;;8.20;99.90;;;;;;5019490;28;20042;-63
2024/04/01 00:47:26;;;;;;;8.27;2.83;;;8.20;99.90;;;;;;5004869;28;20133;-63
2024/04/01 00:50:12;;;;;;;11.40;3.17;;;8.20;99.90;;;;;;5001118;28;20554;-63
2024/04/01 00:53:01;;;;;;;9.07;2.92;;;8.30;99.90;;;;;;5006803;28;20072;-63
2024/04/01 00:55:48;;;;;;;11.18;3.03;;;8.30;99.90;;;;;;5000302;28;20079;-63
2024/04/01 00:58:34;;;;;;;12.77;2.90;;;8.30;99.90;;;;;;5006781;28;20045;-63
2024/04/01 01:01:24;;;;;;;9.68;3.08;;;8.30;99.90;;;;;;5003237;28;20498;-63
2024/04/01 01:04:10;;;;;;;8.20;2.92;;;8.30;99.90;;;;;;5006292;28;20022;-63
2024/04/01 01:06:56;;;;;;;6.40;2.28;;;8.30;99.90;;;;;;5005607;28;20041;-63
2024/04/01 01:09:43;;;;;;;5.40;1.90;;;8.30;99.90;;;;;;5003998;28;20037;-63
2024/04/01 01:12:29;;;;;;;4.93;1.80;;;8.30;99.90;;;;;;5008231;28;20037;-63
2024/04/01 01:15:15;;;;;;;15.30;2.00;;;8.40;99.90;;;;;;5002460;28;20474;-63
2024/04/01 01:18:01;;;;;;;10.90;2.45;;;8.40;99.90;;;;;;5004614;28;20044;-63
2024/04/01 01:20:47;;;;;;;6.35;2.17;;;8.30;99.90;;;;;;5002543;28;20042;-63
2024/04/01 01:23:33;;;;;;;6.82;2.17;;;8.30;99.90;;;;;;5004508;28;20099;-63
2024/04/01 01:26:19;;;;;;;12.00;2.28;;;8.30;99.90;;;;;;5005172;28;20049;-63
2024/04/01 01:29:05;;;;;;;7.73;2.10;;;8.30;99.90;;;;;;5006591;28;20042;-63
2024/04/01 01:31:52;;;;;;;5.67;2.00;;;8.30;99.90;;;;;;5003785;28;20037;-63
2024/04/01 01:34:38;;;;;;;10.50;3.00;;;8.30;99.90;;;;;;5007690;28;20635;-63
2024/04/01 01:37:24;;;;;;;7.63;1.90;;;8.40;99.90;;;;;;5006244;28;20124;-63
2024/04/01 01:40:10;;;;;;;6.63;1.50;;;8.40;99.90;;;;;;5001936;28;20033;-63
2024/04/01 01:42:56;;;;;;;4.77;2.17;;;8.30;99.90;;;;;;5004707;28;20044;-63
2024/04/01 01:45:42;;;;;;;6.20;2.00;;;8.30;99.90;;;;;;5007537;28;20415;-63
2024/04/01 01:48:27;;;;;;;13.23;2.15;;;8.30;99.90;;;;;;5004732;28;20254;-63
2024/04/01 01:51:13;;;;;;;6.82;2.78;;;8.40;99.90;;;;;;4999563;28;20061;-63
2024/04/01 01:53:59;;;;;;;5.28;1.75;;;8.40;99.90;;;;;;5006362;28;20029;-63
2024/04/01 01:56:45;;;;;;;6.00;2.03;;;8.40;99.90;;;;;;4998272;28;20037;-63
2024/04/01 01:59:32;;;;;;;9.93;2.22;;;8.50;99.90;;;;;;5004686;28;20391;-63
2024/04/01 02:02:18;;;;;;;9.90;2.83;;;8.40;99.90;;;;;;5005559;28;20459;-63
2024/04/01 02:05:04;;;;;;;9.98;2.05;;;8.40;99.90;;;;;;5006197;28;20045;-63
2024/04/01 02:07:50;;;;;;;5.13;1.60;;;8.40;99.90;;;;;;5006334;28;20545;-63
2024/04/01 02:10:36;;;;;;;6.80;2.15;;;8.30;99.90;;;;;;4999475;28;20108;-63
2024/04/01 02:13:22;;;;;;;3.57;1.33;;;8.30;99.90;;;;;;5007894;28;20038;-63
2024/04/01 02:16:10;;;;;;;6.50;1.42;;;8.40;99.90;;;;;;5006644;28;20069;-63
2024/04/01 02:18:56;;;;;;;5.78;1.42;;;8.40;99.90;;;;;;5007645;28;20405;-63
2024/04/01 02:21:44;;;;;;;6.25;1.38;;;8.40;99.90;;;;;;5002547;28;20030;-63
2024/04/01 02:24:31;;;;;;;6.93;1.08;;;8.40;99.90;;;;;;5005803;28;20069;-63
2024/04/01 02:27:16;;;;;;;10.18;1.50;;;8.40;99.90;;;;;;5007699;28;20034;-63
2024/04/01 02:30:03;;;;;;;3.05;0.88;;;8.50;99.90;;;;;;5003555;28;20037;-63
2024/04/01 02:32:49;;;;;;;4.32;1.10;;;8.50;99.90;;;;;;5003018;28;20038;-63
2024/04/01 02:35:35;;;;;;;2.22;0.82;;;8.50;99.90;;;;;;5002418;28;20056;-63
2024/04/01 02:38:20;;;;;;;1.20;0.65;;;8.50;99.90;;;;;;5004835;28;20123;-63
2024/04/01 02:41:06;;;;;;;1.73;0.70;;;8.50;99.90;;;;;;5002660;28;20040;-63
2024/04/01 02:43:52;;;;;;;2.67;1.10;;;8.60;99.90;;;;;;5009438;28;20069;-63
2024/04/01 02:46:41;;;;;;;1.58;0.85;;;8.60;99.90;;;;;;5002081;28;20057;-63
2024/04/01 02:49:27;;;;;;;5.30;1.35;;;8.60;99.90;;;;;;5001521;28;20041;-64
2024/04/01 02:52:13;;;;;;;3.28;0.75;;;8.60;99.90;;;;;;5007295;28;20029;-63
2024/04/01 02:54:59;;;;;;;3.03;0.57;;;8.60;99.90;;;;;;5002907;28;20031;-63
2024/04/01 02:57:45;;;;;;;4.05;0.90;;;8.60;99.90;;;;;;5006483;28;20033;-63
2024/04/01 03:00:31;;;;;;;1.70;0.38;;;8.60;99.90;;;;;;4999759;28;20240;-63
2024/04/01 03:03:17;;;;;;;2.80;0.60;;;8.60;99.90;;;;;;5024623;28;20059;-63
2024/04/01 03:06:03;;;;;;;1.88;0.60;;;8.60;99.90;;;;;;5020448;28;20037;-63
2024/04/01 03:08:49;;;;;;;2.17;0.80;;;8.50;99.90;;;;;;5019277;28;20021;-63
2024/04/01 03:11:34;;;;;;;1.38;0.40;;;8.60;99.90;;;;;;5020923;28;20072;-63
2024/04/01 03:14:21;;;;;;;1.40;0.55;;;8.60;99.90;;;;;;5024579;28;20041;-63
2024/04/01 03:17:07;;;;;;;0.65;0.47;;;8.60;99.90;;;;;;5023635;28;20132;-64
2024/04/01 03:19:56;;;;;;;5.28;0.95;;;8.60;99.90;;;;;;5022266;28;20080;-63
2024/04/01 03:22:42;;;;;;;1.63;0.30;;;8.60;99.90;;;;;;5024784;28;20033;-63
2024/04/01 03:25:28;;;;;;;5.20;0.63;;;8.60;99.90;;;;;;5022021;28;20038;-63
2024/04/01 03:28:14;;;;;;;2.83;0.40;;;8.70;99.90;;;;;;5025630;28;20117;-63
2024/04/01 03:31:06;;;;;;;1.07;0.30;;;8.70;99.90;;;;;;5016531;28;20481;-63
2024/04/01 03:33:52;;;;;;;0.55;0.32;;;8.70;99.90;;;;;;5005880;28;20049;-63
2024/04/01 03:36:38;;;;;;;6.03;0.52;;;8.70;99.90;;;;;;5002399;28;20029;-63
2024/04/01 03:39:24;;;;;;;2.90;0.50;;;8.70;99.90;;;;;;5001288;28;20036;-63
2024/04/01 03:42:11;;;;;;;1.27;0.37;;;8.70;99.90;;;;;;5006024;28;20030;-63
2024/04/01 03:44:57;;;;;;;4.82;0.65;;;8.70;99.90;;;;;;4997145;28;20042;-63
2024/04/01 03:47:43;;;;;;;2.38;0.80;;;8.60;99.90;;;;;;5008505;28;20056;-63
2024/04/01 03:50:30;;;;;;;1.60;0.50;;;8.60;99.90;;;;;;4999997;28;20049;-63
2024/04/01 03:53:16;;;;;;;;;;;8.60;99.90;;;;;;5006664;28;20030;-63
2024/04/01 03:56:02;;;;;;;5.82;0.40;;;8.60;99.90;;;;;;5005250;28;19932;-63
2024/04/01 03:58:48;;;;;;;4.38;0.40;;;8.60;99.90;;;;;;5000582;28;20045;-63
2024/04/01 04:01:34;;;;;;;0.65;0.30;;;8.60;99.90;;;;;;5004224;28;20038;-63
2024/04/01 04:04:20;;;;;;;0.28;0.20;;;8.60;99.90;;;;;;5006457;28;20037;-63
2024/04/01 04:07:06;;;;;;;0.68;0.40;;;8.60;99.90;;;;;;5005996;28;20036;-63
2024/04/01 04:09:52;;;;;;;6.07;0.90;;;8.60;99.90;;;;;;5004614;28;20022;-63
2024/04/01 04:12:37;;;;;;;3.50;0.85;;;8.60;99.90;;;;;;5008021;28;20038;-63
2024/04/01 04:15:23;;;;;;;3.05;0.50;;;8.60;99.90;;;;;;5004955;28;20034;-63
2024/04/01 04:18:10;;;;;;;0.87;0.30;;;8.60;99.90;;;;;;5007730;28;20040;-63
2024/04/01 04:20:55;;;;;;;1.77;0.30;;;8.50;99.90;;;;;;5003074;28;20247;-63
2024/04/01 04:23:41;;;;;;;2.13;0.40;;;8.60;99.90;;;;;;5008393;28;21013;-63
2024/04/01 04:26:27;;;;;;;3.33;0.50;;;8.60;99.90;;;;;;5004214;28;20041;-63
2024/04/01 04:29:13;;;;;;;1.45;0.50;;;8.60;99.90;;;;;;5008098;28;20030;-63
2024/04/01 04:32:09;;;;;;;5.90;0.40;;;8.70;99.90;;;;;;5005176;28;20065;-61
2024/04/01 04:34:54;;;;;;;1.98;0.68;;;8.70;99.90;;;;;;5003480;28;20062;-63
2024/04/01 04:37:40;;;;;;;3.35;1.05;;;8.70;99.90;;;;;;5007734;28;20065;-63
2024/04/01 04:40:27;;;;;;;2.90;0.45;;;8.70;99.90;;;;;;5007048;28;20033;-63
2024/04/01 04:43:13;;;;;;;5.35;0.70;;;8.80;99.90;;;;;;5006592;28;20034;-64
2024/04/01 04:45:59;;;;;;;1.43;0.80;;;8.70;99.90;;;;;;5002655;28;20045;-64
2024/04/01 04:48:46;;;;;;;7.15;0.90;;;8.70;99.90;;;;;;5003257;28;20029;-64
2024/04/01 04:51:32;;;;;;;4.85;0.95;;;8.70;99.90;;;;;;5006279;28;20034;-63
2024/04/01 04:54:19;;;;;;;3.95;0.70;;;8.70;99.90;;;;;;5010353;28;20113;-63
2024/04/01 04:57:05;;;;;;;1.52;0.40;;;8.70;99.90;;;;;;5003886;28;20029;-63
2024/04/01 04:59:51;;;;;;;2.63;0.50;;;8.70;99.90;;;;;;5001772;28;20042;-63
2024/04/01 05:02:36;;;;;;;2.63;0.40;;;8.70;99.90;;;;;;5024066;28;20654;-63
2024/04/01 05:05:23;;;;;;;2.15;0.40;;;8.70;99.90;;;;;;5020384;28;20457;-63
2024/04/01 05:08:09;;;;;;;0.90;0.30;;;8.60;99.90;;;;;;5025792;28;20025;-63
2024/04/01 05:10:56;;;;;;;1.27;0.70;;;8.60;99.90;;;;;;5018215;28;20030;-64
2024/04/01 05:13:42;;;;;;;0.30;0.30;;;8.50;99.90;;;;;;5027290;28;20021;-63
2024/04/01 05:16:27;;;;;;;1.08;0.30;;;8.50;99.90;;;;;;5021446;28;20042;-63
2024/04/01 05:19:13;;;;;;;1.67;0.50;;;8.50;99.90;;;;;;5024049;28;20037;-64
2024/04/01 05:22:01;;;;;;;3.20;0.20;;;8.50;99.90;;;;;;5024241;28;20152;-64
2024/04/01 05:24:47;;;;;;;3.50;0.65;;;8.50;99.90;;;;;;5020116;28;20061;-64
2024/04/01 05:27:33;;;;;;;0.82;0.40;;;8.60;99.90;;;;;;5024245;28;20112;-64
2024/04/01 05:30:23;;;;;;;2.38;0.60;;;8.60;99.90;;;;;;5022076;28;20040;-64
2024/04/01 05:33:09;;;;;;;2.58;0.60;;;8.60;99.90;;;;;;5026048;28;20520;-64
2024/04/01 05:35:54;;;;;;;3.13;0.50;;;8.60;99.90;;;;;;5023024;28;20546;-63
2024/04/01 05:38:40;;;;;;;4.60;0.60;;;8.60;99.90;;;;;;5025962;28;20069;-64
2024/04/01 05:41:26;;;;;;;3.25;0.45;;;8.60;99.90;;;;;;5020180;28;20072;-64
2024/04/01 05:44:12;;;;;;;5.43;0.80;;;8.60;99.90;;;;;;5025334;28;20040;-64
2024/04/01 05:46:58;;;;;;;0.88;0.38;;;8.60;99.90;;;;;;5023937;28;20044;-64
2024/04/01 05:49:44;;;;;;;1.67;0.45;;;8.60;99.90;;;;;;5024228;28;20782;-63
2024/04/01 05:52:30;;;;;;;2.53;0.60;;;8.60;99.90;;;;;;5023592;28;20070;-63
2024/04/01 05:55:16;;;;;;;6.18;0.77;;;8.70;99.90;;;;;;5020368;28;20035;-63
2024/04/01 05:58:01;;;;;;;3.03;0.43;;;8.60;99.90;;;;;;5025401;28;20033;-64
2024/04/01 06:00:47;;;;;;;2.63;0.63;;;8.60;99.90;;;;;;5020544;28;20041;-63
2024/04/01 06:03:33;;;;;;;1.97;0.77;;;8.60;99.90;;;;;;5023997;28;20033;-64
2024/04/01 06:06:20;;;;;;;1.35;0.68;;;8.70;99.90;;;;;;5023026;28;21072;-63
2024/04/01 06:09:07;;;;;;;2.70;0.70;;;8.70;99.90;;;;;;5026257;28;20034;-63
2024/04/01 06:11:52;;;;;;;;;;;8.70;99.90;;;;;;5025653;28;20509;-63
2024/04/01 06:14:38;;;;;;;1.73;0.80;;;8.70;99.90;;;;;;5021527;28;19992;-63
2024/04/01 06:17:24;;;;;;;2.42;1.05;;;8.70;99.90;;;;;;5023515;28;20046;-63
2024/04/01 06:20:10;;;;;;;8.03;1.10;;;8.70;99.90;;;;;;5019584;28;20036;-63
2024/04/01 06:22:56;;;;;;;3.93;1.20;;;8.70;99.90;;;;;;5023686;28;20642;-63
2024/04/01 06:25:46;;;;;;;2.67;1.10;;;8.70;99.90;;;;;;5022044;28;20195;-63
2024/04/01 06:28:32;;;;;;;3.03;0.77;;;8.70;99.90;;;;;;5028412;28;20116;-63
2024/04/01 06:31:18;;;;;;;3.92;1.00;;;8.70;99.90;;;;;;5024890;28;20029;-63
2024/04/01 06:34:04;;;;;;;2.40;0.80;;;8.80;99.90;;;;;;5027097;28;20083;-63
2024/04/01 06:36:50;;;;;;;1.00;0.65;;;8.80;99.90;;;;;;5023325;28;20271;-63
2024/04/01 06:39:36;;;;;;;4.82;0.93;;;8.80;99.90;;;;;;5022851;28;20038;-63
2024/04/01 06:42:22;;;;;;;1.58;0.98;;;8.90;99.90;;;;;;5026746;28;20037;-63
2024/04/01 06:45:07;;;;;;;1.30;0.80;;;8.90;99.90;;;;;;5019402;28;20138;-63
2024/04/01 06:47:54;;;;;;;2.05;0.90;;;9.00;99.90;;;;;;5021296;28;20600;-63
2024/04/01 06:50:40;;;;;;;;;;;9.00;99.90;;;;;;5023590;28;20608;-63
2024/04/01 06:53:26;;;;;;;1.75;0.70;;;9.10;99.90;;;;;;5027716;28;19913;-63
2024/04/01 06:56:12;;;;;;;2.27;0.80;;;9.10;99.90;;;;;;5019702;28;20033;-63
2024/04/01 06:58:58;;;;;;;2.75;1.17;;;9.10;99.90;;;;;;5027767;28;20505;-63
2024/04/01 07:01:44;;;;;;;3.67;0.98;;;9.10;99.90;;;;;;5018697;28;20045;-63
2024/04/01 07:04:30;;;;;;;5.00;1.15;;;9.10;99.90;;;;;;5032198;28;20040;-63
2024/04/01 07:07:16;;;;;;;3.60;1.15;;;9.10;99.90;;;;;;5023740;28;20041;-63
2024/04/01 07:10:02;;;;;;;6.82;1.52;;;9.10;99.90;;;;;;5018772;28;20053;-63
2024/04/01 07:12:48;;;;;;;2.50;0.80;;;9.10;99.90;;;;;;5021422;28;20103;-63
2024/04/01 07:15:34;;;;;;;1.90;1.07;;;9.00;99.90;;;;;;5019692;28;20033;-63
2024/04/01 07:18:20;;;;;;;2.10;0.93;;;9.10;99.90;;;;;;5020631;28;20037;-63
2024/04/01 07:21:06;;;;;;;6.82;1.67;;;9.10;99.90;;;;;;5018435;28;20748;-63
2024/04/01 07:23:52;;;;;;;2.03;1.40;;;9.10;99.90;;;;;;5023739;28;20029;-63
2024/04/01 07:26:38;;;;;;;4.53;1.57;;;9.10;99.90;;;;;;5018350;28;20095;-63
2024/04/01 07:29:24;;;;;;;3.08;1.35;;;9.10;99.90;;;;;;5026514;28;20069;-63
2024/04/01 07:32:09;;;;;;;5.88;2.17;;;9.20;99.90;;;;;;5024769;28;20472;-63
2024/04/01 07:34:56;;;;;;;4.40;1.48;;;9.00;99.90;;;;;;5024210;28;20368;-63
2024/04/01 07:37:42;;;;;;;7.97;1.90;;;9.00;99.90;;;;;;5026284;28;20398;-63
2024/04/01 07:40:28;;;;;;;1.25;0.90;;;9.00;99.90;;;;;;5022871;28;20144;-63
2024/04/01 07:43:13;;;;;;;3.90;1.17;;;9.00;99.90;;;;;;5027528;28;20037;-63
2024/04/01 07:45:59;;;;;;;4.82;1.30;;;9.10;99.90;;;;;;5022468;28;20495;-63
2024/04/01 07:48:45;;;;;;;1.63;0.90;;;9.10;99.90;;;;;;5027236;28;20569;-63
2024/04/01 07:51:31;;;;;;;3.75;0.88;;;9.20;99.90;;;;;;5021827;28;20030;-64
2024/04/01 07:54:17;;;;;;;0.50;0.38;;;9.20;99.90;;;;;;5027266;28;20025;-64
2024/04/01 07:57:03;;;;;;;0.90;0.45;;;9.20;99.90;;;;;;5025660;28;20037;-63
2024/04/01 07:59:49;;;;;;;1.70;0.50;;;9.20;99.90;;;;;;5023193;28;20053;-63
2024/04/01 08:02:35;;;;;;;0.77;0.50;;;9.20;99.90;;;;;;5023127;28;20044;-64
2024/04/01 08:05:21;;;;;;;0.75;0.40;;;9.30;99.90;;;;;;5024388;28;20037;-63
2024/04/01 08:08:07;;;;;;;3.08;0.40;;;9.30;99.90;;;;;;5024395;28;20038;-63
2024/04/01 08:10:53;;;;;;;0.50;0.40;;;9.40;99.90;;;;;;5022501;28;20026;-63
2024/04/01 08:13:39;;;;;;;2.45;0.50;;;9.40;99.90;;;;;;5025343;28;20487;-63
2024/04/01 08:16:24;;;;;;;0.40;0.38;;;9.30;99.90;;;;;;5023325;28;20042;-63
2024/04/01 08:19:11;;;;;;;0.70;0.30;;;9.20;99.90;;;;;;5023744;28;20065;-63
2024/04/01 08:21:57;;;;;;;0.28;0.28;;;9.30;99.90;;;;;;5024212;28;20658;-63
2024/04/01 08:24:42;;;;;;;0.20;0.20;;;9.20;99.90;;;;;;5026791;28;20061;-63
2024/04/01 08:27:29;;;;;;;0.35;0.30;;;9.30;99.90;;;;;;5029408;28;20780;-63
2024/04/01 08:30:15;;;;;;;0.50;0.28;;;9.30;99.90;;;;;;5026564;28;20458;-63
2024/04/01 08:33:01;;;;;;;2.87;0.30;;;9.20;99.90;;;;;;5025286;28;20013;-63
2024/04/01 08:35:47;;;;;;;0.95;0.30;;;9.30;99.90;;;;;;5026197;28;20769;-63
2024/04/01 08:38:33;;;;;;;0.35;0.22;;;9.20;99.90;;;;;;5023437;28;20069;-63
2024/04/01 08:41:40;;;;;;;1.65;0.50;;;9.30;99.90;;;;;;5024334;28;20034;-65
2024/04/01 08:44:27;;;;;;;0.68;0.43;;;9.30;99.90;;;;;;5025659;28;20044;-63
2024/04/01 08:47:14;;;;;;;0.98;0.30;;;9.20;99.90;;;;;;5030016;28;20048;-63
2024/04/01 08:50:04;;;;;;;0.95;0.38;;;9.30;99.90;;;;;;5022986;28;20038;-64
2024/04/01 08:53:02;;;;;;;0.52;0.20;;;9.20;99.90;;;;;;5027544;28;20489;-63
2024/04/01 08:55:48;;;;;;;0.77;0.28;;;9.30;99.90;;;;;;5025208;28;20065;-63
2024/04/01 08:58:34;;;;;;;2.47;0.43;;;9.30;99.90;;;;;;5025790;28;20033;-62
2024/04/01 09:01:20;;;;;;;1.10;0.52;;;9.30;99.90;;;;;;5023662;28;20390;-63
2024/04/01 09:04:06;;;;;;;0.63;0.38;;;9.30;99.90;;;;;;5025444;28;20521;-63
2024/04/01 09:06:52;;;;;;;1.40;0.45;;;9.30;99.90;;;;;;5026529;28;20485;-63
2024/04/01 09:09:38;;;;;;;0.95;0.52;;;9.40;99.90;;;;;;5022630;28;20041;-63
2024/04/01 09:12:25;;;;;;;2.38;0.80;;;9.40;99.90;;;;;;5029531;28;20042;-64
2024/04/01 09:15:12;;;;;;;2.13;0.70;;;9.40;99.90;;;;;;5021974;28;20086;-63
2024/04/01 09:17:58;;;;;;;;;;;9.40;99.90;;;;;;5024223;28;20632;-64
2024/04/01 09:20:44;;;;;;;1.58;0.70;;;9.40;99.90;;;;;;5024000;28;20457;-64
2024/04/01 09:23:41;;;;;;;1.48;0.80;;;9.40;99.90;;;;;;5024742;28;20040;-65
2024/04/01 09:26:30;;;;;;;2.67;1.20;;;9.40;99.90;;;;;;5023163;28;20506;-65
2024/04/01 09:29:16;;;;;;;2.72;0.70;;;9.40;99.90;;;;;;5025882;28;20053;-65
2024/04/01 09:32:03;;;;;;;0.90;0.60;;;9.40;99.90;;;;;;5023143;28;20033;-62
2024/04/01 09:34:48;;;;;;;2.67;0.77;;;9.40;99.90;;;;;;5022961;28;20076;-64
2024/04/01 09:37:34;;;;;;;2.05;0.70;;;9.40;99.90;;;;;;5024715;28;20482;-64
2024/04/01 09:40:20;;;;;;;2.15;0.50;;;9.50;99.90;;;;;;5021150;28;20268;-62
2024/04/01 09:43:07;;;;;;;1.05;0.60;;;9.40;99.90;;;;;;5023202;28;20045;-63
2024/04/01 09:45:53;;;;;;;1.27;0.83;;;9.40;99.90;;;;;;5022690;28;20047;-64
2024/04/01 09:48:39;;;;;;;1.77;0.60;;;9.50;99.90;;;;;;5023930;28;20033;-64
2024/04/01 09:51:27;;;;;;;1.00;0.50;;;9.50;99.90;;;;;;5017110;28;20136;-64
2024/04/01 09:54:13;;;;;;;0.98;0.60;;;9.40;99.90;;;;;;5023116;28;20024;-64
2024/04/01 09:57:23;;;;;;;1.70;0.82;;;9.40;99.90;;;;;;5020211;28;20037;-64
2024/04/01 10:00:16;;;;;;;0.52;0.40;;;9.40;99.90;;;;;;5020362;28;20096;-64
2024/04/01 10:03:21;;;;;;;0.68;0.35;;;9.40;99.90;;;;;;5015804;28;20034;-63
2024/04/01 10:06:19;;;;;;;0.63;0.40;;;9.50;99.90;;;;;;5023152;28;20706;-63
2024/04/01 10:09:40;;;;;;;1.35;0.55;;;9.50;99.90;;;;;;5020951;28;20033;-64
2024/04/01 10:12:48;;;;;;;0.45;0.32;;;9.60;99.90;;;;;;5022303;28;20049;-64
2024/04/01 10:15:52;;;;;;;;;;;9.70;99.90;;;;;;5021151;28;20126;-63
2024/04/01 10:19:13;;;;;;;1.52;0.40;;;9.70;99.90;;;;;;5023021;28;19913;-63
2024/04/01 10:22:13;;;;;;;0.70;0.40;;;9.60;99.90;;;;;;5022345;28;20037;-63
2024/04/01 10:25:51;;;;;;;0.82;0.35;;;9.70;99.90;;;;;;5023094;28;20075;-64
2024/04/01 10:29:02;;;;;;;0.47;0.22;;;9.90;99.90;;;;;;5000597;28;20057;-64
2024/04/01 10:32:42;;;;;;;1.00;0.20;;;10.00;99.90;;;;;;5008762;28;20153;-64
2024/04/01 10:36:04;;;;;;;1.13;0.22;;;10.20;99.90;;;;;;4982439;28;20046;-64
2024/04/01 10:39:06;;;;;;;1.95;0.20;;;10.30;99.90;;;;;;5003612;28;20104;-64
2024/04/01 10:42:10;;;;;;;0.10;0.10;;;10.30;99.90;;;;;;5003624;28;20029;-64
2024/04/01 10:45:24;;;;;;;0.10;0.10;;;10.40;99.90;;;;;;5000573;28;20079;-63
2024/04/01 10:48:47;;;;;;;0.40;0.20;;;10.40;99.90;;;;;;5004265;28;20041;-64
2024/04/01 10:51:43;;;;;;;0.30;0.20;;;10.40;99.90;;;;;;4998749;28;20038;-64
2024/04/01 10:55:02;;;;;;;0.10;0.10;;;10.40;99.90;;;;;;5003957;28;20046;-64
2024/04/01 10:57:53;;;;;;;0.22;0.10;;;10.50;99.90;;;;;;5000781;28;20109;-64
2024/04/01 11:01:05;;;;;;;0.32;0.20;;;10.60;99.90;;;;;;5001201;28;20305;-64
2024/04/01 11:04:10;;;;;;;0.43;0.30;;;10.60;99.90;;;;;;5002637;28;20728;-64
2024/04/01 11:07:29;;;;;;;0.63;0.20;;;10.70;99.90;;;;;;5003707;28;20041;-64
2024/04/01 11:10:34;;;;;;;0.20;0.15;;;10.70;99.90;;;;;;5001089;28;20037;-64
2024/04/01 11:13:22;;;;;;;0.30;0.20;;;10.60;99.90;;;;;;5002204;28;20125;-64
2024/04/01 11:16:09;;;;;;;0.22;0.10;;;10.80;99.90;;;;;;5000524;28;20110;-64
2024/04/01 11:19:02;;;;;;;;;;;10.70;99.90;;;;;;5001037;28;20049;-64
2024/04/01 11:21:53;;;;;;;1.92;0.20;;;10.60;99.90;;;;;;5000420;28;19972;-64
2024/04/01 11:24:51;;;;;;;0.20;0.20;;;10.50;99.90;;;;;;5003050;28;20677;-64
2024/04/01 11:28:22;;;;;;;0.30;0.30;;;10.60;99.90;;;;;;5001455;28;20025;-64
2024/04/01 11:31:19;;;;;;;1.40;0.20;;;10.70;99.90;;;;;;4985133;28;20501;-64
2024/04/01 11:34:30;;;;;;;0.40;0.20;;;10.90;99.90;;;;;;5002076;28;20026;-63
2024/04/01 11:37:27;;;;;;;0.50;0.40;;;10.90;99.90;;;;;;5000459;28;20030;-64
2024/04/01 11:40:19;;;;;;;0.65;0.20;;;10.90;99.90;;;;;;5012429;28;20125;-64
2024/04/01 11:43:09;;;;;;;0.20;0.20;;;10.90;99.90;;;;;;5002269;28;20417;-63
2024/04/01 11:45:57;;;;;;;1.08;0.50;;;10.70;99.90;;;;;;5000474;28;20038;-64
2024/04/01 11:48:43;;;;;;;1.30;0.30;;;10.60;99.90;;;;;;5002116;28;20384;-63
2024/04/01 11:51:34;;;;;;;2.95;0.30;;;10.50;99.90;;;;;;4999989;28;20497;-64
2024/04/01 11:54:24;;;;;;;1.20;0.20;;;10.40;99.90;;;;;;5009980;28;20042;-64
2024/04/01 11:57:25;;;;;;;0.50;0.30;;;10.40;99.90;;;;;;5003466;28;20084;-64
2024/04/01 12:00:12;;;;;;;0.82;0.30;;;10.40;99.90;;;;;;5001590;28;20045;-63
2024/04/01 12:02:58;;;;;;;0.47;0.20;;;10.30;99.90;;;;;;5000062;28;20088;-64
2024/04/01 12:05:52;;;;;;;0.30;0.20;;;10.20;99.90;;;;;;4999065;28;20048;-63
2024/04/01 12:08:41;;;;;;;0.30;0.28;;;10.20;99.90;;;;;;5001251;28;20038;-64
2024/04/01 12:11:28;;;;;;;1.95;0.40;;;10.10;99.90;;;;;;5001005;28;20073;-64
2024/04/01 12:14:14;;;;;;;;;;;10.00;99.90;;;;;;5001206;28;20026;-64
2024/04/01 12:17:00;;;;;;;2.83;0.40;;;10.10;99.90;;;;;;5006265;28;19936;-64
2024/04/01 12:19:46;;;;;;;2.57;0.70;;;10.10;99.90;;;;;;5002254;28;20042;-64
2024/04/01 12:22:35;;;;;;;0.77;0.50;;;10.10;99.90;;;;;;5007419;28;20056;-63
2024/04/01 12:25:21;;;;;;;0.60;0.30;;;10.20;99.90;;;;;;5006232;28;20042;-63
2024/04/01 12:28:08;;;;;;;0.65;0.40;;;10.20;99.90;;;;;;5003985;28;20479;-64
2024/04/01 12:30:58;;;;;;;0.52;0.40;;;10.20;99.90;;;;;;5005146;28;20034;-64
2024/04/01 12:33:47;;;;;;;0.65;0.40;;;10.10;99.90;;;;;;5002779;28;20038;-63
2024/04/01 12:36:34;;;;;;;0.82;0.50;;;9.80;99.90;;;;;;5002522;28;20068;-63
2024/04/01 12:39:21;;;;;;;0.70;0.60;;;9.80;99.90;;;;;;5004318;28;20186;-63
2024/04/01 12:42:08;;;;;;;;;;;9.80;99.90;;;;;;5006617;28;20085;-63
2024/04/01 12:44:55;;;;;;;0.40;0.38;;;9.80;99.90;;;;;;5001708;28;20083;-64
2024/04/01 12:47:41;;;;;;;0.60;0.57;;;9.70;99.90;;;;;;5003868;28;20064;-64
2024/04/01 12:50:33;;;;;;;0.85;0.70;;;9.70;99.90;;;;;;5004511;28;20500;-64
2024/04/01 12:53:45;;;;;;;0.50;0.50;;;9.80;99.90;;;;;;5004720;28;20061;-63
2024/04/01 12:56:39;;;;;;;1.02;0.75;;;9.80;99.90;;;;;;5001427;28;20038;-64
2024/04/01 13:00:07;;;;;;;2.45;0.60;;;9.80;99.90;;;;;;5006436;28;20038;-64
2024/04/01 13:03:10;;;;;;;1.15;0.73;;;9.80;99.90;;;;;;5008922;28;20041;-64
2024/04/01 13:06:35;;;;;;;0.52;0.50;;;9.60;99.90;;;;;;5014324;28;20128;-64
2024/04/01 13:09:32;;;;;;;4.55;0.52;;;9.40;99.90;;;;;;5021890;28;20206;-64
2024/04/01 13:12:34;;;;;;;0.30;0.30;;;9.10;99.90;;;;;;5023425;28;20029;-64
2024/04/01 13:15:36;;;;;;;1.08;0.32;;;8.90;99.90;;;;;;5023623;28;20465;-64
2024/04/01 13:18:43;;;;;;;0.50;0.50;;;8.70;99.90;;;;;;5025445;28;20046;-64
2024/04/01 13:22:08;;;;;;;1.10;0.73;;;8.80;99.90;;;;;;5024165;28;20074;-64
2024/04/01 13:25:05;;;;;;;0.60;0.57;;;8.90;99.90;;;;;;5019924;28;20034;-64
2024/04/01 13:28:09;;;;;;;0.60;0.50;;;9.00;99.90;;;;;;5026315;28;20045;-64
2024/04/01 13:31:13;;;;;;;1.17;0.63;;;8.90;99.90;;;;;;5018554;28;20062;-64
2024/04/01 13:34:08;;;;;;;0.80;0.60;;;8.90;99.90;;;;;;5021992;28;20041;-64
2024/04/01 13:37:21;;;;;;;1.23;0.80;;;8.80;99.90;;;;;;5022733;28;20077;-64
2024/04/01 13:40:09;;;;;;;0.63;0.45;;;8.70;99.90;;;;;;5019805;28;20037;-64
2024/04/01 13:43:33;;;;;;;0.52;0.40;;;8.60;99.90;;;;;;5022676;28;20103;-64
2024/04/01 13:46:36;;;;;;;0.93;0.50;;;8.50;99.90;;;;;;5021953;28;20033;-64
2024/04/01 13:49:59;;;;;;;1.30;0.40;;;8.50;99.90;;;;;;5024262;28;20087;-64
2024/04/01 13:52:48;;;;;;;0.45;0.30;;;8.30;99.90;;;;;;5020433;28;20121;-64
2024/04/01 13:56:15;;;;;;;0.25;0.25;;;8.30;99.90;;;;;;5021932;28;20060;-64
2024/04/01 13:59:23;;;;;;;2.17;0.43;;;8.50;99.90;;;;;;5017567;28;20040;-63
2024/04/01 14:02:51;;;;;;;0.40;0.30;;;8.40;99.90;;;;;;5023193;28;20053;-63
2024/04/01 14:05:58;;;;;;;0.70;0.40;;;8.30;99.90;;;;;;5029130;28;20498;-63
2024/04/01 14:08:59;;;;;;;0.57;0.55;;;8.30;99.90;;;;;;5022536;28;20136;-64
2024/04/01 14:12:03;;;;;;;0.85;0.50;;;8.30;99.90;;;;;;5020938;28;20438;-64
2024/04/01 14:15:30;;;;;;;1.13;0.70;;;8.40;99.90;;;;;;5016838;28;20536;-65
2024/04/01 14:18:34;;;;;;;2.95;1.02;;;8.60;99.90;;;;;;5018614;28;20056;-65
2024/04/01 14:21:21;;;;;;;2.00;0.95;;;8.50;99.90;;;;;;5016650;28;20037;-65
2024/04/01 14:24:13;;;;;;;;;;;8.50;99.90;;;;;;5015700;28;20030;-65
2024/04/01 14:27:00;;;;;;;2.38;1.30;;;8.70;99.90;;;;;;5017016;28;19916;-65
2024/04/01 14:29:45;;;;;;;2.20;1.60;;;8.60;99.90;;;;;;5017332;28;21220;-65
2024/04/01 14:32:31;;;;;;;2.10;1.42;;;8.60;99.90;;;;;;5022703;28;20037;-65
2024/04/01 14:35:18;;;;;;;2.00;1.27;;;8.60;99.90;;;;;;5019630;28;20198;-65
2024/04/01 14:38:04;;;;;;;3.20;2.20;;;8.50;99.90;;;;;;5014840;28;20033;-65
2024/04/01 14:40:51;;;;;;;2.47;1.88;;;8.40;99.90;;;;;;5016717;28;20045;-65
2024/04/01 14:43:37;;;;;;;;;;;8.40;99.90;;;;;;5021109;28;20048;-65
2024/04/01 14:46:25;;;;;;;2.85;1.58;;;8.40;99.90;;;;;;5017635;28;19917;-65
2024/04/01 14:49:11;;;;;;;2.85;1.50;;;8.30;99.90;;;;;;5018915;28;20025;-65
2024/04/01 14:52:02;;;;;;;3.03;1.00;;;8.20;99.90;;;;;;5015985;28;20059;-65
2024/04/01 14:54:48;;;;;;;4.97;1.10;;;8.10;99.90;;;;;;5015485;28;20026;-65
2024/04/01 14:57:35;;;;;;;2.95;0.70;;;8.00;99.90;;;;;;5022478;28;20030;-64
2024/04/01 15:00:25;;;;;;;1.05;0.70;;;8.00;99.90;;;;;;5019598;28;20984;-65